createdAt,value
2022-09-07T00:01:36.580Z,101269.20
2022-09-07T00:04:59.041Z,101267.45
2022-09-07T00:08:38.280Z,101266.65
2022-09-07T00:12:07.081Z,101266.11
2022-09-07T00:15:21.608Z,101264.00
2022-09-07T00:18:57.688Z,101267.41
2022-09-07T00:21:46.565Z,101275.30
2022-09-07T00:24:25.384Z,101281.42
2022-09-07T00:27:00.260Z,101279.44
2022-09-07T00:30:29.342Z,101276.77
2022-09-07T00:33:38.078Z,101279.80
2022-09-07T00:36:21.247Z,101274.13
2022-09-07T00:39:41.700Z,101271.15
2022-09-07T00:42:10.400Z,101269.56
2022-09-07T00:45:39.930Z,101269.04
2022-09-07T00:49:12.212Z,101268.88
2022-09-07T00:51:49.651Z,101263.72
2022-09-07T00:55:03.524Z,101262.63
2022-09-07T00:57:57.052Z,101266.25
2022-09-07T01:00:28.877Z,101265.83
2022-09-07T01:02:59.884Z,101263.31
2022-09-07T01:05:56.410Z,101261.43
2022-09-07T01:08:36.016Z,101263.98
2022-09-07T01:11:29.075Z,101259.77
2022-09-07T01:14:16.169Z,101260.16
2022-09-07T01:17:53.335Z,101257.33
2022-09-07T01:20:36.714Z,101254.03
2022-09-07T01:24:29.631Z,101250.27
2022-09-07T01:28:18.836Z,101247.55
2022-09-07T01:31:10.732Z,101243.80
2022-09-07T01:34:52.458Z,101242.48
2022-09-07T01:37:59.825Z,101242.60
2022-09-07T01:41:40.574Z,101236.84
2022-09-07T01:44:26.693Z,101235.80
2022-09-07T01:47:05.899Z,101239.16
2022-09-07T01:50:01.258Z,101236.16
2022-09-07T01:53:49.243Z,101238.48
2022-09-07T01:56:48.269Z,101232.84
2022-09-07T02:00:19.015Z,101232.08
2022-09-07T02:03:32.102Z,101237.40
2022-09-07T02:06:59.844Z,101235.64
2022-09-07T02:10:10.024Z,101235.50
2022-09-07T02:13:29.775Z,101232.88
2022-09-07T02:16:39.969Z,101230.45
2022-09-07T02:19:36.477Z,101231.73
2022-09-07T02:22:57.945Z,101238.02
2022-09-07T02:26:39.031Z,101240.02
2022-09-07T02:29:44.341Z,101243.09
2022-09-07T02:32:18.215Z,101229.57
2022-09-07T02:34:50.004Z,101220.38
2022-09-07T02:38:18.783Z,101218.65
2022-09-07T02:41:08.830Z,101213.84
2022-09-07T02:43:53.133Z,101212.34
2022-09-07T02:47:11.801Z,101213.20
2022-09-07T02:50:42.773Z,101207.73
2022-09-07T02:54:23.357Z,101206.25
2022-09-07T02:57:45.294Z,101205.61
2022-09-07T03:01:30.494Z,101206.66
2022-09-07T03:04:52.898Z,101212.23
2022-09-07T03:07:45.398Z,101207.91
2022-09-07T03:10:41.092Z,101201.70
2022-09-07T03:13:21.601Z,101213.26
2022-09-07T03:15:55.930Z,101220.95
2022-09-07T03:19:32.016Z,101228.05
2022-09-07T03:23:00.877Z,101223.86
2022-09-07T03:25:34.359Z,101218.74
2022-09-07T03:28:08.391Z,101217.70
2022-09-07T03:31:05.907Z,101218.03
2022-09-07T03:34:17.420Z,101221.88
2022-09-07T03:37:37.917Z,101222.81
2022-09-07T03:40:26.425Z,101222.91
2022-09-07T03:43:17.227Z,101219.95
2022-09-07T03:45:48.701Z,101223.64
2022-09-07T03:48:42.926Z,101226.21
2022-09-07T03:51:16.569Z,101224.59
2022-09-07T03:53:51.533Z,101218.94
2022-09-07T03:56:24.856Z,101219.56
2022-09-07T03:59:17.561Z,101219.86
2022-09-07T04:02:09.473Z,101217.48
2022-09-07T04:04:38.693Z,101218.69
2022-09-07T04:07:09.807Z,101223.29
2022-09-07T04:09:38.646Z,101224.15
2022-09-07T04:12:26.396Z,101219.57
2022-09-07T04:15:06.211Z,101210.54
2022-09-07T04:17:44.794Z,101204.00
2022-09-07T04:20:18.925Z,101198.83
2022-09-07T04:22:54.468Z,101202.98
2022-09-07T04:25:48.796Z,101204.08
2022-09-07T04:28:41.643Z,101197.54
2022-09-07T04:31:10.666Z,101193.95
2022-09-07T04:37:57.844Z,101189.10
2022-09-07T04:40:29.490Z,101194.05
2022-09-07T04:43:03.276Z,101197.91
2022-09-07T04:45:54.394Z,101202.11
2022-09-07T04:48:28.830Z,101204.11
2022-09-07T04:51:37.696Z,101200.94
2022-09-07T04:54:41.615Z,101200.35
2022-09-07T04:58:14.056Z,101198.72
2022-09-07T05:00:49.318Z,101185.04
2022-09-07T05:03:18.048Z,101179.61
2022-09-07T05:05:46.333Z,101181.98
2022-09-07T05:08:20.357Z,101182.77
2022-09-07T05:11:31.753Z,101181.86
2022-09-07T05:14:20.766Z,101175.08
2022-09-07T05:16:52.267Z,101172.08
2022-09-07T05:19:28.238Z,101179.77
2022-09-07T05:22:10.436Z,101179.29
2022-09-07T05:24:51.508Z,101181.34
2022-09-07T05:27:20.278Z,101183.04
2022-09-07T05:30:08.253Z,101187.79
2022-09-07T05:32:47.960Z,101185.02
2022-09-07T05:35:24.512Z,101184.61
2022-09-07T05:38:09.306Z,101182.25
2022-09-07T05:41:21.168Z,101176.75
2022-09-07T05:47:32.755Z,101180.85
2022-09-07T05:50:51.396Z,101170.20
2022-09-07T05:53:47.221Z,101174.19
2022-09-07T05:57:17.895Z,101177.10
2022-09-07T06:00:00.193Z,101179.45
2022-09-07T06:02:39.811Z,101181.08
2022-09-07T06:05:28.601Z,101177.80
2022-09-07T06:08:34.765Z,101174.79
2022-09-07T06:12:04.932Z,101172.77
2022-09-07T06:15:04.716Z,101171.66
2022-09-07T06:18:27.136Z,101176.05
2022-09-07T06:21:22.255Z,101176.94
2022-09-07T06:23:54.832Z,101175.98
2022-09-07T06:27:26.822Z,101170.20
2022-09-07T06:30:40.787Z,101167.53
2022-09-07T06:34:30.291Z,101162.83
2022-09-07T06:37:51.813Z,101166.11
2022-09-07T06:40:38.346Z,101163.68
2022-09-07T06:44:07.355Z,101161.08
2022-09-07T06:50:38.166Z,101161.96
2022-09-07T06:58:25.868Z,101156.59
2022-09-07T07:01:58.503Z,101151.68
2022-09-07T07:05:37.557Z,101157.69
2022-09-07T07:09:19.376Z,101158.03
2022-09-07T07:12:46.953Z,101153.55
2022-09-07T07:16:34.825Z,101152.73
2022-09-07T07:20:23.812Z,101159.91
2022-09-07T07:24:12.825Z,101154.08
2022-09-07T07:32:19.193Z,101165.93
2022-09-07T07:35:48.146Z,101168.77
2022-09-07T07:43:44.696Z,101164.40
2022-09-07T07:47:03.719Z,101162.28
2022-09-07T07:50:47.082Z,101167.00
2022-09-07T07:54:34.975Z,101163.94
2022-09-07T07:58:26.198Z,101167.07
2022-09-07T08:02:08.058Z,101164.91
2022-09-07T08:05:14.307Z,101162.27
2022-09-07T08:09:02.717Z,101158.41
2022-09-07T08:12:37.756Z,101157.26
2022-09-07T08:16:20.581Z,101160.09
2022-09-07T08:20:09.731Z,101164.14
2022-09-07T08:23:55.444Z,101157.98
2022-09-07T08:27:20.755Z,101151.14
2022-09-07T08:30:45.736Z,101141.46
2022-09-07T08:34:18.601Z,101140.74
2022-09-07T08:38:08.282Z,101141.38
2022-09-07T08:42:09.984Z,101141.77
2022-09-07T08:45:59.357Z,101137.77
2022-09-07T08:49:49.195Z,101139.89
2022-09-07T08:53:56.662Z,101143.60
2022-09-07T08:57:46.126Z,101141.60
2022-09-07T09:01:31.938Z,101136.29
2022-09-07T09:05:25.141Z,101131.84
2022-09-07T09:09:20.655Z,101127.89
2022-09-07T09:13:21.230Z,101126.38
2022-09-07T09:17:17.292Z,101124.80
2022-09-07T09:21:12.459Z,101117.43
2022-09-07T09:25:01.689Z,101113.36
2022-09-07T09:28:31.751Z,101109.41
2022-09-07T09:32:14.427Z,101096.30
2022-09-07T09:35:58.132Z,101095.00
2022-09-07T09:39:45.214Z,101093.17
2022-09-07T09:43:43.553Z,101085.34
2022-09-07T09:47:35.868Z,101084.76
2022-09-07T09:55:40.607Z,101075.70
2022-09-07T10:07:47.350Z,101073.16
2022-09-07T10:15:50.027Z,101067.20
2022-09-07T10:19:33.422Z,101058.08
2022-09-07T10:23:34.517Z,101056.96
2022-09-07T10:27:29.777Z,101047.00
2022-09-07T10:31:30.637Z,101053.98
2022-09-07T10:35:14.908Z,101045.50
2022-09-07T10:39:07.291Z,101044.80
2022-09-07T10:47:16.834Z,101055.86
2022-09-07T10:51:13.408Z,101052.62
2022-09-07T10:55:03.201Z,101048.61
2022-09-07T10:59:03.390Z,101049.05
2022-09-07T11:07:19.725Z,101037.21
2022-09-07T11:11:10.297Z,101031.86
2022-09-07T11:14:59.332Z,101032.41
2022-09-07T11:19:35.191Z,101030.80
2022-09-07T11:23:10.824Z,101030.11
2022-09-07T11:27:18.212Z,101030.69
2022-09-07T11:31:07.504Z,101023.14
2022-09-07T11:34:55.764Z,101008.45
2022-09-07T11:39:00.379Z,100999.31
2022-09-07T11:42:58.162Z,100998.41
2022-09-07T11:47:00.390Z,100992.75
2022-09-07T11:50:56.996Z,100992.13
2022-09-07T11:54:43.510Z,100991.92
2022-09-07T11:58:56.723Z,100989.11
2022-09-07T12:03:02.573Z,100990.36
2022-09-07T12:06:52.179Z,100986.91
2022-09-07T12:10:54.610Z,100995.40
2022-09-07T12:14:42.575Z,100992.71
2022-09-07T12:18:34.891Z,100991.94
2022-09-07T12:22:24.056Z,100983.98
2022-09-07T12:26:13.234Z,100983.22
2022-09-07T12:30:02.736Z,100971.77
2022-09-07T12:34:01.151Z,100966.32
2022-09-07T12:37:50.352Z,100965.71
2022-09-07T12:41:42.056Z,100964.49
2022-09-07T12:45:31.800Z,100959.27
2022-09-07T12:49:20.939Z,100946.35
2022-09-07T12:53:23.804Z,100947.00
2022-09-07T12:57:40.204Z,100939.36
2022-09-07T13:01:19.675Z,100932.76
2022-09-07T13:05:06.649Z,100936.02
2022-09-07T13:09:10.477Z,100936.27
2022-09-07T13:13:05.690Z,100930.36
2022-09-07T13:17:22.329Z,100926.52
2022-09-07T13:21:11.190Z,100925.05
2022-09-07T13:24:57.216Z,100909.70
2022-09-07T13:29:01.805Z,100906.27
2022-09-07T13:36:59.426Z,100902.17
2022-09-07T13:40:51.817Z,100893.63
2022-09-07T13:44:33.198Z,100877.86
2022-09-07T13:48:26.672Z,100874.33
2022-09-07T13:52:27.890Z,100877.69
2022-09-07T13:56:23.318Z,100879.39
2022-09-07T14:00:18.537Z,100876.45
2022-09-07T14:04:07.017Z,100870.20
2022-09-07T14:07:55.354Z,100875.06
2022-09-07T14:11:34.921Z,100876.80
2022-09-07T14:15:16.738Z,100877.58
2022-09-07T14:18:51.217Z,100872.33
2022-09-07T14:22:40.294Z,100870.20
2022-09-07T14:26:22.472Z,100870.84
2022-09-07T14:29:41.734Z,100863.92
2022-09-07T14:33:32.105Z,100868.79
2022-09-07T14:37:12.453Z,100872.09
2022-09-07T14:40:56.198Z,100873.09
2022-09-07T14:44:50.338Z,100872.30
2022-09-07T14:48:39.590Z,100872.38
2022-09-07T14:52:00.683Z,100872.24
2022-09-07T14:55:36.111Z,100868.60
2022-09-07T14:59:16.889Z,100859.07
2022-09-07T15:03:14.885Z,100857.55
2022-09-07T15:07:11.334Z,100855.01
2022-09-07T15:15:23.529Z,100837.91
2022-09-07T15:19:20.322Z,100832.25
2022-09-07T15:23:09.541Z,100834.42
2022-09-07T15:27:02.322Z,100830.17
2022-09-07T15:30:28.905Z,100837.33
2022-09-07T15:34:11.644Z,100837.52
2022-09-07T15:38:03.284Z,100836.66
2022-09-07T15:41:37.790Z,100840.92
2022-09-07T15:45:17.380Z,100836.21
2022-09-07T15:49:07.384Z,100835.32
2022-09-07T15:52:46.978Z,100833.30
2022-09-07T15:56:37.510Z,100832.30
2022-09-07T16:00:11.115Z,100831.48
2022-09-07T16:03:43.018Z,100832.89
2022-09-07T16:08:24.714Z,100833.11
2022-09-07T16:11:23.819Z,100822.52
2022-09-07T16:15:12.696Z,100823.48
2022-09-07T16:19:06.954Z,100817.83
2022-09-07T16:27:06.938Z,100822.31
2022-09-07T16:30:56.415Z,100824.83
2022-09-07T16:34:38.658Z,100822.04
2022-09-07T16:42:00.746Z,100824.66
2022-09-07T16:49:10.598Z,100823.52
2022-09-07T16:52:59.688Z,100814.64
2022-09-07T16:56:27.855Z,100814.43
2022-09-07T16:59:49.015Z,100816.52
2022-09-07T17:03:03.094Z,100816.75
2022-09-07T17:06:02.927Z,100807.98
2022-09-07T17:09:17.180Z,100798.14
2022-09-07T17:12:41.880Z,100797.01
2022-09-07T17:16:31.591Z,100798.71
2022-09-07T17:20:03.484Z,100794.84
2022-09-07T17:23:55.674Z,100790.72
2022-09-07T17:27:14.310Z,100790.04
2022-09-07T17:30:51.766Z,100789.73
2022-09-07T17:34:30.935Z,100786.25
2022-09-07T17:43:38.673Z,100808.95
2022-09-07T17:46:11.231Z,100809.36
2022-09-07T17:50:00.408Z,100814.46
2022-09-07T17:53:22.997Z,100820.90
2022-09-07T17:56:15.463Z,100816.64
2022-09-07T18:03:03.806Z,100826.27
2022-09-07T18:06:36.029Z,100829.65
2022-09-07T18:09:45.676Z,100840.74
2022-09-07T18:12:58.815Z,100844.54
2022-09-07T18:16:06.413Z,100851.00
2022-09-07T18:19:34.701Z,100852.46
2022-09-07T18:22:35.459Z,100851.52
2022-09-07T18:26:06.275Z,100845.08
2022-09-07T18:30:06.019Z,100843.32
2022-09-07T18:33:27.982Z,100849.01
2022-09-07T18:37:13.913Z,100855.75
2022-09-07T18:40:55.305Z,100864.99
2022-09-07T18:48:35.737Z,100873.60
2022-09-07T18:55:08.446Z,100877.20
2022-09-07T18:58:49.689Z,100871.30
2022-09-07T19:02:25.615Z,100866.14
2022-09-07T19:06:14.105Z,100869.96
2022-09-07T19:08:57.714Z,100874.31
2022-09-07T19:12:29.894Z,100863.21
2022-09-07T19:16:12.777Z,100865.86
2022-09-07T19:20:03.406Z,100863.52
2022-09-07T19:23:33.008Z,100856.27
2022-09-07T19:26:46.364Z,100848.25
2022-09-07T19:30:02.535Z,100847.24
2022-09-07T19:33:36.463Z,100837.86
2022-09-07T19:36:55.628Z,100846.34
2022-09-07T19:40:30.376Z,100850.48
2022-09-07T19:44:24.918Z,100855.13
2022-09-07T19:48:02.608Z,100856.17
2022-09-07T19:51:14.752Z,100853.40
2022-09-07T19:54:45.536Z,100849.34
2022-09-07T19:58:28.164Z,100842.23
2022-09-07T20:01:39.470Z,100835.86
2022-09-07T20:04:42.974Z,100830.30
2022-09-07T20:08:08.531Z,100830.48
2022-09-07T20:11:07.261Z,100830.63
2022-09-07T20:14:46.203Z,100827.55
2022-09-07T20:18:19.237Z,100819.64
2022-09-07T20:21:48.703Z,100820.95
2022-09-07T20:25:13.403Z,100822.35
2022-09-07T20:28:17.545Z,100827.23
2022-09-07T20:31:08.095Z,100829.02
2022-09-07T20:34:40.389Z,100826.31
2022-09-07T20:38:07.655Z,100822.65
2022-09-07T20:40:57.891Z,100821.89
2022-09-07T20:44:05.312Z,100818.25
2022-09-07T20:47:01.804Z,100812.60
2022-09-07T20:50:15.977Z,100808.38
2022-09-07T20:53:53.764Z,100806.86
2022-09-07T20:57:31.525Z,100797.98
2022-09-07T21:00:55.435Z,100798.80
2022-09-07T21:04:31.080Z,100809.13
2022-09-07T21:07:32.223Z,100812.27
2022-09-07T21:10:30.793Z,100815.00
2022-09-07T21:13:54.453Z,100811.84
2022-09-07T21:17:44.018Z,100804.19
2022-09-07T21:20:53.240Z,100807.82
2022-09-07T21:24:55.198Z,100814.13
2022-09-07T21:27:39.912Z,100824.14
2022-09-07T21:30:46.118Z,100823.54
2022-09-07T21:33:35.276Z,100828.98
2022-09-07T21:36:39.315Z,100829.41
2022-09-07T21:40:05.803Z,100824.60
2022-09-07T21:43:41.506Z,100822.02
2022-09-07T21:47:30.353Z,100826.30
2022-09-07T21:51:09.478Z,100820.19
2022-09-07T21:54:48.305Z,100808.02
2022-09-07T21:58:24.960Z,100809.02
2022-09-07T22:02:09.974Z,100812.84
2022-09-07T22:05:47.831Z,100811.46
2022-09-07T22:09:23.833Z,100807.04
2022-09-07T22:12:34.099Z,100809.28
2022-09-07T22:15:54.467Z,100805.84
2022-09-07T22:19:43.383Z,100802.23
2022-09-07T22:22:47.875Z,100797.23
2022-09-07T22:25:59.471Z,100792.38
2022-09-07T22:29:11.399Z,100795.27
2022-09-07T22:32:32.902Z,100789.77
2022-09-07T22:36:03.185Z,100784.84
2022-09-07T22:39:30.228Z,100789.73
2022-09-07T22:42:54.825Z,100797.41
2022-09-07T22:46:06.699Z,100794.92
2022-09-07T22:49:11.663Z,100788.08
2022-09-07T22:52:49.100Z,100788.90
2022-09-07T22:56:18.065Z,100779.47
2022-09-07T22:59:43.348Z,100777.21
2022-09-07T23:02:54.313Z,100774.35
2022-09-07T23:06:33.668Z,100768.43
2022-09-07T23:09:44.647Z,100760.06
2022-09-07T23:13:16.771Z,100757.92
2022-09-07T23:16:58.746Z,100753.11
2022-09-07T23:19:51.064Z,100748.75
2022-09-07T23:23:15.656Z,100748.02
2022-09-07T23:26:47.135Z,100742.05
2022-09-07T23:30:18.654Z,100741.46
2022-09-07T23:33:47.501Z,100741.08
2022-09-07T23:37:36.641Z,100735.58
2022-09-07T23:40:48.347Z,100738.20
2022-09-07T23:44:37.314Z,100731.86
2022-09-07T23:48:06.272Z,100728.75
2022-09-07T23:51:47.063Z,100724.17
2022-09-07T23:54:47.927Z,100720.42
2022-09-07T23:58:10.656Z,100720.91
